PWSweather.com
Personal Weather Stations
Station Observations
KMICHEBO10
Cordwood Point, Lake Huron, Cheboygan, MI 49721

Cordwood Point, Lake HuronCheboygan, MI 49721

Lat: 45.663372, Lon: -84.3327789

Elevation: 598

Station Type: Davis Vantage Pro2 Wireless

https://www.lakehuronweather.org

High Low Average
Temperature 27.5°F-2.5°C 8.8°F-12.9°C 22.2°F-5.4°C
Dew Point 25.4°F-3.7°C 6.2°F-14.3°C 19.3°F-7.1°C
Winds 3.5 mph 5.6 kmh Calm Calm 1.0 mph S1.6 kmh S
Wind Gusts 6.9 mph11.1 kmh -- 2.0 mph3.2 kmh
Humidity 92% 79% 89%
Pressure 30.38 in1028.8 mb 30.32 in1026.8 mb -
Precipitation 0.00 in0.0 mm - -
Hour Temp Dew Point Humidity Winds Wind Gusts Pressure Precip Precip Rate Daily Precip Total
12:00 AM 11.0°F-11.7°C 8.3°F-13.2°C 89% Calm Calm -- 30.33 in1027.1 mb - 0.00 in0.0 mm 0.00 in0.0 mm
12:10 AM 10.5°F-11.9°C 7.9°F-13.4°C 89% Calm Calm -- 30.33 in1027.1 mb - 0.00 in0.0 mm 0.00 in0.0 mm
12:20 AM 10.1°F-12.2°C 7.5°F-13.6°C 89% Calm Calm -- 30.33 in1027.1 mb - 0.00 in0.0 mm 0.00 in0.0 mm
12:30 AM 9.6°F-12.4°C 7.0°F-13.9°C 89% Calm Calm -- 30.34 in1027.4 mb - 0.00 in0.0 mm 0.00 in0.0 mm
12:40 AM 9.3°F-12.6°C 6.7°F-14.1°C 89% Calm Calm -- 30.34 in1027.4 mb - 0.00 in0.0 mm 0.00 in0.0 mm
12:50 AM 9.0°F-12.8°C 6.4°F-14.2°C 89% Calm Calm -- 30.34 in1027.4 mb - 0.00 in0.0 mm 0.00 in0.0 mm
01:00 AM 8.8°F-12.9°C 6.2°F-14.3°C 89% Calm Calm 1.2 mph1.9 kmh 30.34 in1027.4 mb - 0.00 in0.0 mm 0.00 in0.0 mm
01:10 AM 8.8°F-12.9°C 6.5°F-14.2°C 90% Calm Calm 1.2 mph1.9 kmh 30.34 in1027.4 mb - 0.00 in0.0 mm 0.00 in0.0 mm
01:20 AM 9.3°F-12.6°C 7.2°F-13.8°C 91% Calm Calm 1.2 mph1.9 kmh 30.34 in1027.4 mb - 0.00 in0.0 mm 0.00 in0.0 mm
01:30 AM 9.8°F-12.3°C 7.7°F-13.5°C 91% 1.2 mph SE1.9 kmh SE 1.2 mph1.9 kmh 30.34 in1027.4 mb - 0.00 in0.0 mm 0.00 in0.0 mm
01:40 AM 10.3°F-12.1°C 8.2°F-13.2°C 91% 1.2 mph SE1.9 kmh SE 2.3 mph3.7 kmh 30.33 in1027.1 mb - 0.00 in0.0 mm 0.00 in0.0 mm
01:50 AM 10.5°F-11.9°C 8.4°F-13.1°C 91% 1.2 mph SE1.9 kmh SE 1.2 mph1.9 kmh 30.33 in1027.1 mb - 0.00 in0.0 mm 0.00 in0.0 mm
02:00 AM 10.7°F-11.8°C 8.6°F-13.0°C 91% 1.2 mph SE1.9 kmh SE 2.3 mph3.7 kmh 30.33 in1027.1 mb - 0.00 in0.0 mm 0.00 in0.0 mm
02:10 AM 11.0°F-11.7°C 8.9°F-12.8°C 91% 1.2 mph SE1.9 kmh SE 1.2 mph1.9 kmh 30.33 in1027.1 mb - 0.00 in0.0 mm 0.00 in0.0 mm
02:20 AM 11.7°F-11.3°C 9.8°F-12.3°C 92% 1.2 mph SE1.9 kmh SE 2.3 mph3.7 kmh 30.32 in1026.8 mb - 0.00 in0.0 mm 0.00 in0.0 mm
02:30 AM 12.6°F-10.8°C 10.7°F-11.8°C 92% 1.2 mph SE1.9 kmh SE 2.3 mph3.7 kmh 30.32 in1026.8 mb - 0.00 in0.0 mm 0.00 in0.0 mm
02:40 AM 13.2°F-10.4°C 11.1°F-11.6°C 91% 1.2 mph SE1.9 kmh SE 2.3 mph3.7 kmh 30.32 in1026.8 mb - 0.00 in0.0 mm 0.00 in0.0 mm
02:50 AM 13.8°F-10.1°C 11.7°F-11.3°C 91% 1.2 mph SE1.9 kmh SE 2.3 mph3.7 kmh 30.33 in1027.1 mb - 0.00 in0.0 mm 0.00 in0.0 mm
03:00 AM 14.5°F-9.7°C 12.3°F-10.9°C 91% 1.2 mph SE1.9 kmh SE 1.2 mph1.9 kmh 30.33 in1027.1 mb - 0.00 in0.0 mm 0.00 in0.0 mm
03:10 AM 15.0°F-9.4°C 12.8°F-10.7°C 91% 1.2 mph SE1.9 kmh SE 2.3 mph3.7 kmh 30.33 in1027.1 mb - 0.00 in0.0 mm 0.00 in0.0 mm
03:20 AM 15.5°F-9.2°C 13.1°F-10.5°C 90% 1.2 mph SE1.9 kmh SE 2.3 mph3.7 kmh 30.33 in1027.1 mb - 0.00 in0.0 mm 0.00 in0.0 mm
03:30 AM 15.9°F-8.9°C 13.5°F-10.3°C 90% 1.2 mph SE1.9 kmh SE 2.3 mph3.7 kmh 30.33 in1027.1 mb - 0.00 in0.0 mm 0.00 in0.0 mm
03:40 AM 16.4°F-8.7°C 14.0°F-10.0°C 90% 1.2 mph S1.9 kmh S 2.3 mph3.7 kmh 30.33 in1027.1 mb - 0.00 in0.0 mm 0.00 in0.0 mm
03:50 AM 16.8°F-8.4°C 14.1°F-9.9°C 89% 1.2 mph S1.9 kmh S 4.6 mph7.4 kmh 30.33 in1027.1 mb - 0.00 in0.0 mm 0.00 in0.0 mm
04:00 AM 17.1°F-8.3°C 14.4°F-9.8°C 89% 1.2 mph SSE1.9 kmh SSE 3.5 mph5.6 kmh 30.33 in1027.1 mb - 0.00 in0.0 mm 0.00 in0.0 mm
04:10 AM 17.4°F-8.1°C 14.7°F-9.6°C 89% 1.2 mph S1.9 kmh S 2.3 mph3.7 kmh 30.33 in1027.1 mb - 0.00 in0.0 mm 0.00 in0.0 mm
04:20 AM 17.6°F-8.0°C 14.9°F-9.5°C 89% 2.3 mph SE3.7 kmh SE 2.3 mph3.7 kmh 30.32 in1026.8 mb - 0.00 in0.0 mm 0.00 in0.0 mm
04:30 AM 17.9°F-7.8°C 15.2°F-9.3°C 89% 1.2 mph SSE1.9 kmh SSE 3.5 mph5.6 kmh 30.33 in1027.1 mb - 0.00 in0.0 mm 0.00 in0.0 mm
04:40 AM 18.0°F-7.8°C 15.3°F-9.3°C 89% 1.2 mph SE1.9 kmh SE 3.5 mph5.6 kmh 30.33 in1027.1 mb - 0.00 in0.0 mm 0.00 in0.0 mm
04:50 AM 18.1°F-7.7°C 15.4°F-9.2°C 89% 1.2 mph S1.9 kmh S 2.3 mph3.7 kmh 30.32 in1026.8 mb - 0.00 in0.0 mm 0.00 in0.0 mm
05:00 AM 18.3°F-7.6°C 15.6°F-9.1°C 89% 2.3 mph SSE3.7 kmh SSE 3.5 mph5.6 kmh 30.33 in1027.1 mb - 0.00 in0.0 mm 0.00 in0.0 mm
05:10 AM 18.4°F-7.6°C 15.7°F-9.1°C 89% 1.2 mph S1.9 kmh S 3.5 mph5.6 kmh 30.33 in1027.1 mb - 0.00 in0.0 mm 0.00 in0.0 mm
05:20 AM 18.4°F-7.6°C 15.7°F-9.1°C 89% 2.3 mph SSE3.7 kmh SSE 3.5 mph5.6 kmh 30.32 in1026.8 mb - 0.00 in0.0 mm 0.00 in0.0 mm
05:30 AM 18.6°F-7.4°C 15.9°F-8.9°C 89% 1.2 mph S1.9 kmh S 4.6 mph7.4 kmh 30.33 in1027.1 mb - 0.00 in0.0 mm 0.00 in0.0 mm
05:40 AM 18.7°F-7.4°C 16.0°F-8.9°C 89% 2.3 mph SE3.7 kmh SE 3.5 mph5.6 kmh 30.33 in1027.1 mb - 0.00 in0.0 mm 0.00 in0.0 mm
05:50 AM 18.8°F-7.3°C 16.1°F-8.8°C 89% 1.2 mph SSE1.9 kmh SSE 3.5 mph5.6 kmh 30.33 in1027.1 mb - 0.00 in0.0 mm 0.00 in0.0 mm
06:00 AM 19.0°F-7.2°C 16.3°F-8.7°C 89% 2.3 mph SSE3.7 kmh SSE 3.5 mph5.6 kmh 30.33 in1027.1 mb - 0.00 in0.0 mm 0.00 in0.0 mm
06:10 AM 19.1°F-7.2°C 16.7°F-8.5°C 90% 2.3 mph SSE3.7 kmh SSE 3.5 mph5.6 kmh 30.32 in1026.8 mb - 0.00 in0.0 mm 0.00 in0.0 mm
06:20 AM 19.3°F-7.1°C 16.6°F-8.6°C 89% 1.2 mph S1.9 kmh S 3.5 mph5.6 kmh 30.32 in1026.8 mb - 0.00 in0.0 mm 0.00 in0.0 mm
06:30 AM 19.4°F-7.0°C 16.7°F-8.5°C 89% 2.3 mph SSE3.7 kmh SSE 3.5 mph5.6 kmh 30.32 in1026.8 mb - 0.00 in0.0 mm 0.00 in0.0 mm
06:40 AM 19.5°F-6.9°C 16.8°F-8.4°C 89% 1.2 mph S1.9 kmh S 3.5 mph5.6 kmh 30.32 in1026.8 mb - 0.00 in0.0 mm 0.00 in0.0 mm
06:50 AM 19.6°F-6.9°C 17.1°F-8.3°C 90% 2.3 mph S3.7 kmh S 6.9 mph11.1 kmh 30.32 in1026.8 mb - 0.00 in0.0 mm 0.00 in0.0 mm
07:00 AM 19.7°F-6.8°C 17.2°F-8.2°C 90% 2.3 mph S3.7 kmh S 4.6 mph7.4 kmh 30.32 in1026.8 mb - 0.00 in0.0 mm 0.00 in0.0 mm
07:10 AM 19.8°F-6.8°C 17.3°F-8.2°C 90% 3.5 mph S5.6 kmh S 4.6 mph7.4 kmh 30.32 in1026.8 mb - 0.00 in0.0 mm 0.00 in0.0 mm
07:20 AM 19.8°F-6.8°C 17.4°F-8.1°C 90% 2.3 mph SSE3.7 kmh SSE 4.6 mph7.4 kmh 30.32 in1026.8 mb - 0.00 in0.0 mm 0.00 in0.0 mm
07:30 AM 19.9°F-6.7°C 17.4°F-8.1°C 90% 2.3 mph S3.7 kmh S 4.6 mph7.4 kmh 30.32 in1026.8 mb - 0.00 in0.0 mm 0.00 in0.0 mm
07:40 AM 20.0°F-6.7°C 17.5°F-8.1°C 90% 2.3 mph SSE3.7 kmh SSE 4.6 mph7.4 kmh 30.33 in1027.1 mb - 0.00 in0.0 mm 0.00 in0.0 mm
07:50 AM 20.1°F-6.6°C 17.6°F-8.0°C 90% 3.5 mph S5.6 kmh S 5.8 mph9.3 kmh 30.33 in1027.1 mb - 0.00 in0.0 mm 0.00 in0.0 mm
08:00 AM 20.2°F-6.6°C 17.7°F-7.9°C 90% 1.2 mph S1.9 kmh S 2.3 mph3.7 kmh 30.33 in1027.1 mb - 0.00 in0.0 mm 0.00 in0.0 mm
08:10 AM 20.2°F-6.6°C 17.7°F-7.9°C 90% 1.2 mph S1.9 kmh S 2.3 mph3.7 kmh 30.34 in1027.4 mb - 0.00 in0.0 mm 0.00 in0.0 mm
08:20 AM 20.3°F-6.5°C 18.1°F-7.7°C 91% Calm Calm 1.2 mph1.9 kmh 30.34 in1027.4 mb - 0.00 in0.0 mm 0.00 in0.0 mm
08:30 AM 20.3°F-6.5°C 18.1°F-7.7°C 91% Calm Calm -- 30.34 in1027.4 mb - 0.00 in0.0 mm 0.00 in0.0 mm
08:40 AM 20.3°F-6.5°C 18.1°F-7.7°C 91% Calm Calm 2.3 mph3.7 kmh 30.34 in1027.4 mb - 0.00 in0.0 mm 0.00 in0.0 mm
08:50 AM 20.4°F-6.4°C 18.2°F-7.7°C 91% 1.2 mph S1.9 kmh S 2.3 mph3.7 kmh 30.34 in1027.4 mb - 0.00 in0.0 mm 0.00 in0.0 mm
09:00 AM 20.4°F-6.4°C 18.2°F-7.7°C 91% 1.2 mph SSW1.9 kmh SSW 2.3 mph3.7 kmh 30.34 in1027.4 mb - 0.00 in0.0 mm 0.00 in0.0 mm
09:10 AM 20.5°F-6.4°C 18.3°F-7.6°C 91% 1.2 mph S1.9 kmh S 2.3 mph3.7 kmh 30.33 in1027.1 mb - 0.00 in0.0 mm 0.00 in0.0 mm
09:20 AM 20.6°F-6.3°C 18.4°F-7.6°C 91% 1.2 mph S1.9 kmh S 2.3 mph3.7 kmh 30.33 in1027.1 mb - 0.00 in0.0 mm 0.00 in0.0 mm
09:30 AM 20.6°F-6.3°C 18.4°F-7.6°C 91% 1.2 mph SSW1.9 kmh SSW 2.3 mph3.7 kmh 30.33 in1027.1 mb - 0.00 in0.0 mm 0.00 in0.0 mm
09:40 AM 20.6°F-6.3°C 18.4°F-7.6°C 91% 1.2 mph SSW1.9 kmh SSW 1.2 mph1.9 kmh 30.34 in1027.4 mb - 0.00 in0.0 mm 0.00 in0.0 mm
09:50 AM 20.7°F-6.3°C 18.5°F-7.5°C 91% 1.2 mph S1.9 kmh S 1.2 mph1.9 kmh 30.34 in1027.4 mb - 0.00 in0.0 mm 0.00 in0.0 mm
10:00 AM 20.9°F-6.2°C 18.7°F-7.4°C 91% 1.2 mph S1.9 kmh S 1.2 mph1.9 kmh 30.34 in1027.4 mb - 0.00 in0.0 mm 0.00 in0.0 mm
10:10 AM 21.0°F-6.1°C 18.8°F-7.3°C 91% Calm Calm 1.2 mph1.9 kmh 30.34 in1027.4 mb - 0.00 in0.0 mm 0.00 in0.0 mm
10:20 AM 21.1°F-6.1°C 18.9°F-7.3°C 91% 1.2 mph S1.9 kmh S 1.2 mph1.9 kmh 30.34 in1027.4 mb - 0.00 in0.0 mm 0.00 in0.0 mm
10:30 AM 21.3°F-5.9°C 19.1°F-7.2°C 91% 1.2 mph S1.9 kmh S 2.3 mph3.7 kmh 30.34 in1027.4 mb - 0.00 in0.0 mm 0.00 in0.0 mm
10:40 AM 21.4°F-5.9°C 19.2°F-7.1°C 91% Calm Calm 1.2 mph1.9 kmh 30.34 in1027.4 mb - 0.00 in0.0 mm 0.00 in0.0 mm
10:50 AM 21.6°F-5.8°C 19.4°F-7.0°C 91% Calm Calm 1.2 mph1.9 kmh 30.35 in1027.8 mb - 0.00 in0.0 mm 0.00 in0.0 mm
11:00 AM 21.7°F-5.7°C 19.5°F-6.9°C 91% Calm Calm 1.2 mph1.9 kmh 30.35 in1027.8 mb - 0.00 in0.0 mm 0.00 in0.0 mm
11:10 AM 22.0°F-5.6°C 19.8°F-6.8°C 91% 1.2 mph SW1.9 kmh SW 2.3 mph3.7 kmh 30.36 in1028.1 mb - 0.00 in0.0 mm 0.00 in0.0 mm
11:20 AM 22.1°F-5.5°C 19.9°F-6.7°C 91% Calm Calm 1.2 mph1.9 kmh 30.36 in1028.1 mb - 0.00 in0.0 mm 0.00 in0.0 mm
11:30 AM 22.3°F-5.4°C 20.1°F-6.6°C 91% Calm Calm 2.3 mph3.7 kmh 30.36 in1028.1 mb - 0.00 in0.0 mm 0.00 in0.0 mm
11:40 AM 22.5°F-5.3°C 20.3°F-6.5°C 91% Calm Calm 1.2 mph1.9 kmh 30.36 in1028.1 mb - 0.00 in0.0 mm 0.00 in0.0 mm
11:50 AM 22.7°F-5.2°C 20.5°F-6.4°C 91% Calm Calm 1.2 mph1.9 kmh 30.37 in1028.4 mb - 0.00 in0.0 mm 0.00 in0.0 mm
12:00 PM 22.9°F-5.1°C 20.4°F-6.4°C 90% Calm Calm 1.2 mph1.9 kmh 30.37 in1028.4 mb - 0.00 in0.0 mm 0.00 in0.0 mm
12:10 PM 23.1°F-4.9°C 20.6°F-6.3°C 90% Calm Calm 1.2 mph1.9 kmh 30.38 in1028.8 mb - 0.00 in0.0 mm 0.00 in0.0 mm
12:20 PM 23.4°F-4.8°C 20.9°F-6.2°C 90% Calm Calm -- 30.38 in1028.8 mb - 0.00 in0.0 mm 0.00 in0.0 mm
12:30 PM 23.6°F-4.7°C 20.8°F-6.2°C 89% Calm Calm 1.2 mph1.9 kmh 30.38 in1028.8 mb - 0.00 in0.0 mm 0.00 in0.0 mm
12:40 PM 23.8°F-4.6°C 21.1°F-6.1°C 89% Calm Calm 1.2 mph1.9 kmh 30.38 in1028.8 mb - 0.00 in0.0 mm 0.00 in0.0 mm
12:50 PM 24.0°F-4.4°C 21.2°F-6.0°C 89% Calm Calm 1.2 mph1.9 kmh 30.37 in1028.4 mb - 0.00 in0.0 mm 0.00 in0.0 mm
01:00 PM 24.3°F-4.3°C 21.2°F-6.0°C 88% 1.2 mph SW1.9 kmh SW 2.3 mph3.7 kmh 30.37 in1028.4 mb - 0.00 in0.0 mm 0.00 in0.0 mm
01:10 PM 24.4°F-4.2°C 20.8°F-6.2°C 86% Calm Calm 2.3 mph3.7 kmh 30.37 in1028.4 mb - 0.00 in0.0 mm 0.00 in0.0 mm
01:20 PM 24.7°F-4.1°C 20.6°F-6.3°C 84% Calm Calm 1.2 mph1.9 kmh 30.37 in1028.4 mb - 0.00 in0.0 mm 0.00 in0.0 mm
01:30 PM 24.9°F-3.9°C 20.8°F-6.2°C 84% Calm Calm 1.2 mph1.9 kmh 30.37 in1028.4 mb - 0.00 in0.0 mm 0.00 in0.0 mm
01:40 PM 25.1°F-3.8°C 20.4°F-6.4°C 82% 1.2 mph N1.9 kmh N 1.2 mph1.9 kmh 30.37 in1028.4 mb - 0.00 in0.0 mm 0.00 in0.0 mm
01:50 PM 25.2°F-3.8°C 20.5°F-6.4°C 82% 1.2 mph N1.9 kmh N 2.3 mph3.7 kmh 30.36 in1028.1 mb - 0.00 in0.0 mm 0.00 in0.0 mm
02:00 PM 25.3°F-3.7°C 20.3°F-6.5°C 81% 1.2 mph N1.9 kmh N 2.3 mph3.7 kmh 30.36 in1028.1 mb - 0.00 in0.0 mm 0.00 in0.0 mm
02:10 PM 25.6°F-3.6°C 20.9°F-6.2°C 82% 1.2 mph NNW1.9 kmh NNW 1.2 mph1.9 kmh 30.36 in1028.1 mb - 0.00 in0.0 mm 0.00 in0.0 mm
02:20 PM 25.8°F-3.4°C 20.8°F-6.2°C 81% Calm Calm 1.2 mph1.9 kmh 30.36 in1028.1 mb - 0.00 in0.0 mm 0.00 in0.0 mm
02:30 PM 25.7°F-3.5°C 20.7°F-6.3°C 81% 1.2 mph NNW1.9 kmh NNW 2.3 mph3.7 kmh 30.35 in1027.8 mb - 0.00 in0.0 mm 0.00 in0.0 mm
02:40 PM 26.0°F-3.3°C 20.9°F-6.2°C 81% Calm Calm -- 30.35 in1027.8 mb - 0.00 in0.0 mm 0.00 in0.0 mm
02:50 PM 25.8°F-3.4°C 20.2°F-6.6°C 79% 1.2 mph NNW1.9 kmh NNW 1.2 mph1.9 kmh 30.35 in1027.8 mb - 0.00 in0.0 mm 0.00 in0.0 mm
03:00 PM 25.9°F-3.4°C 20.6°F-6.3°C 80% 1.2 mph N1.9 kmh N 3.5 mph5.6 kmh 30.34 in1027.4 mb - 0.00 in0.0 mm 0.00 in0.0 mm
03:10 PM 25.8°F-3.4°C 20.2°F-6.6°C 79% 1.2 mph N1.9 kmh N 2.3 mph3.7 kmh 30.34 in1027.4 mb - 0.00 in0.0 mm 0.00 in0.0 mm
03:20 PM 25.4°F-3.7°C 20.1°F-6.6°C 80% 1.2 mph N1.9 kmh N 2.3 mph3.7 kmh 30.34 in1027.4 mb - 0.00 in0.0 mm 0.00 in0.0 mm
03:30 PM 25.3°F-3.7°C 20.3°F-6.5°C 81% 1.2 mph N1.9 kmh N 2.3 mph3.7 kmh 30.34 in1027.4 mb - 0.00 in0.0 mm 0.00 in0.0 mm
03:40 PM 25.4°F-3.7°C 20.4°F-6.4°C 81% Calm Calm -- 30.34 in1027.4 mb - 0.00 in0.0 mm 0.00 in0.0 mm
03:50 PM 25.5°F-3.6°C 20.5°F-6.4°C 81% Calm Calm -- 30.35 in1027.8 mb - 0.00 in0.0 mm 0.00 in0.0 mm
04:00 PM 25.4°F-3.7°C 20.7°F-6.3°C 82% Calm Calm -- 30.35 in1027.8 mb - 0.00 in0.0 mm 0.00 in0.0 mm
04:10 PM 25.6°F-3.6°C 21.1°F-6.1°C 83% Calm Calm 1.2 mph1.9 kmh 30.35 in1027.8 mb - 0.00 in0.0 mm 0.00 in0.0 mm
04:20 PM 25.5°F-3.6°C 20.7°F-6.3°C 82% 1.2 mph N1.9 kmh N 2.3 mph3.7 kmh 30.35 in1027.8 mb - 0.00 in0.0 mm 0.00 in0.0 mm
04:30 PM 25.4°F-3.7°C 20.7°F-6.3°C 82% Calm Calm 1.2 mph1.9 kmh 30.35 in1027.8 mb - 0.00 in0.0 mm 0.00 in0.0 mm
04:40 PM 25.4°F-3.7°C 21.0°F-6.1°C 83% Calm Calm 1.2 mph1.9 kmh 30.36 in1028.1 mb - 0.00 in0.0 mm 0.00 in0.0 mm
04:50 PM 25.3°F-3.7°C 20.9°F-6.2°C 83% Calm Calm 1.2 mph1.9 kmh 30.36 in1028.1 mb - 0.00 in0.0 mm 0.00 in0.0 mm
05:00 PM 25.4°F-3.7°C 21.2°F-6.0°C 84% Calm Calm 2.3 mph3.7 kmh 30.36 in1028.1 mb - 0.00 in0.0 mm 0.00 in0.0 mm
05:10 PM 25.5°F-3.6°C 21.3°F-5.9°C 84% 1.2 mph NE1.9 kmh NE 2.3 mph3.7 kmh 30.36 in1028.1 mb - 0.00 in0.0 mm 0.00 in0.0 mm
05:20 PM 25.5°F-3.6°C 21.6°F-5.8°C 85% Calm Calm 1.2 mph1.9 kmh 30.36 in1028.1 mb - 0.00 in0.0 mm 0.00 in0.0 mm
05:30 PM 25.4°F-3.7°C 21.5°F-5.8°C 85% Calm Calm 1.2 mph1.9 kmh 30.36 in1028.1 mb - 0.00 in0.0 mm 0.00 in0.0 mm
05:40 PM 25.4°F-3.7°C 21.8°F-5.7°C 86% 1.2 mph ENE1.9 kmh ENE 2.3 mph3.7 kmh 30.36 in1028.1 mb - 0.00 in0.0 mm 0.00 in0.0 mm
05:50 PM 25.4°F-3.7°C 21.8°F-5.7°C 86% Calm Calm 2.3 mph3.7 kmh 30.36 in1028.1 mb - 0.00 in0.0 mm 0.00 in0.0 mm
06:00 PM 25.4°F-3.7°C 21.8°F-5.7°C 86% Calm Calm 1.2 mph1.9 kmh 30.37 in1028.4 mb - 0.00 in0.0 mm 0.00 in0.0 mm
06:10 PM 25.3°F-3.7°C 22.0°F-5.6°C 87% 2.3 mph E3.7 kmh E 3.5 mph5.6 kmh 30.37 in1028.4 mb - 0.00 in0.0 mm 0.00 in0.0 mm
06:20 PM 25.3°F-3.7°C 22.0°F-5.6°C 87% 1.2 mph E1.9 kmh E 2.3 mph3.7 kmh 30.37 in1028.4 mb - 0.00 in0.0 mm 0.00 in0.0 mm
06:30 PM 25.4°F-3.7°C 22.3°F-5.4°C 88% 1.2 mph E1.9 kmh E 2.3 mph3.7 kmh 30.37 in1028.4 mb - 0.00 in0.0 mm 0.00 in0.0 mm
06:40 PM 25.4°F-3.7°C 22.3°F-5.4°C 88% 1.2 mph SE1.9 kmh SE 3.5 mph5.6 kmh 30.38 in1028.8 mb - 0.00 in0.0 mm 0.00 in0.0 mm
06:50 PM 25.5°F-3.6°C 22.4°F-5.3°C 88% 1.2 mph E1.9 kmh E 3.5 mph5.6 kmh 30.37 in1028.4 mb - 0.00 in0.0 mm 0.00 in0.0 mm
07:00 PM 25.6°F-3.6°C 22.5°F-5.3°C 88% Calm Calm 4.6 mph7.4 kmh 30.37 in1028.4 mb - 0.00 in0.0 mm 0.00 in0.0 mm
07:10 PM 25.6°F-3.6°C 22.8°F-5.1°C 89% 1.2 mph E1.9 kmh E 1.2 mph1.9 kmh 30.38 in1028.8 mb - 0.00 in0.0 mm 0.00 in0.0 mm
07:20 PM 25.6°F-3.6°C 22.8°F-5.1°C 89% Calm Calm 1.2 mph1.9 kmh 30.38 in1028.8 mb - 0.00 in0.0 mm 0.00 in0.0 mm
07:30 PM 25.6°F-3.6°C 23.0°F-5.0°C 90% Calm Calm 1.2 mph1.9 kmh 30.38 in1028.8 mb - 0.00 in0.0 mm 0.00 in0.0 mm
07:40 PM 25.5°F-3.6°C 23.0°F-5.0°C 90% Calm Calm -- 30.38 in1028.8 mb - 0.00 in0.0 mm 0.00 in0.0 mm
07:50 PM 25.5°F-3.6°C 23.0°F-5.0°C 90% 1.2 mph E1.9 kmh E 2.3 mph3.7 kmh 30.38 in1028.8 mb - 0.00 in0.0 mm 0.00 in0.0 mm
08:00 PM 25.6°F-3.6°C 23.3°F-4.8°C 91% 1.2 mph ESE1.9 kmh ESE 2.3 mph3.7 kmh 30.38 in1028.8 mb - 0.00 in0.0 mm 0.00 in0.0 mm
08:10 PM 25.6°F-3.6°C 23.3°F-4.8°C 91% 2.3 mph SE3.7 kmh SE 2.3 mph3.7 kmh 30.38 in1028.8 mb - 0.00 in0.0 mm 0.00 in0.0 mm
08:20 PM 25.7°F-3.5°C 23.4°F-4.8°C 91% 1.2 mph ESE1.9 kmh ESE 3.5 mph5.6 kmh 30.38 in1028.8 mb - 0.00 in0.0 mm 0.00 in0.0 mm
08:30 PM 25.8°F-3.4°C 23.5°F-4.7°C 91% 1.2 mph SE1.9 kmh SE 3.5 mph5.6 kmh 30.38 in1028.8 mb - 0.00 in0.0 mm 0.00 in0.0 mm
08:40 PM 26.0°F-3.3°C 23.7°F-4.6°C 91% 1.2 mph SE1.9 kmh SE 1.2 mph1.9 kmh 30.38 in1028.8 mb - 0.00 in0.0 mm 0.00 in0.0 mm
08:50 PM 26.1°F-3.3°C 23.8°F-4.6°C 91% 1.2 mph ENE1.9 kmh ENE 2.3 mph3.7 kmh 30.38 in1028.8 mb - 0.00 in0.0 mm 0.00 in0.0 mm
09:00 PM 26.2°F-3.2°C 23.9°F-4.5°C 91% 1.2 mph E1.9 kmh E 2.3 mph3.7 kmh 30.38 in1028.8 mb - 0.00 in0.0 mm 0.00 in0.0 mm
09:10 PM 26.3°F-3.2°C 24.3°F-4.3°C 92% 1.2 mph SE1.9 kmh SE 1.2 mph1.9 kmh 30.38 in1028.8 mb - 0.00 in0.0 mm 0.00 in0.0 mm
09:20 PM 26.4°F-3.1°C 24.4°F-4.2°C 92% 1.2 mph ESE1.9 kmh ESE 5.8 mph9.3 kmh 30.38 in1028.8 mb - 0.00 in0.0 mm 0.00 in0.0 mm
09:30 PM 26.5°F-3.1°C 24.5°F-4.2°C 92% Calm Calm 2.3 mph3.7 kmh 30.38 in1028.8 mb - 0.00 in0.0 mm 0.00 in0.0 mm
09:40 PM 26.6°F-3.0°C 24.6°F-4.1°C 92% 1.2 mph ESE1.9 kmh ESE 2.3 mph3.7 kmh 30.38 in1028.8 mb - 0.00 in0.0 mm 0.00 in0.0 mm
09:50 PM 26.7°F-2.9°C 24.7°F-4.1°C 92% 1.2 mph E1.9 kmh E 3.5 mph5.6 kmh 30.37 in1028.4 mb - 0.00 in0.0 mm 0.00 in0.0 mm
10:00 PM 26.8°F-2.9°C 24.8°F-4.0°C 92% 2.3 mph E3.7 kmh E 4.6 mph7.4 kmh 30.37 in1028.4 mb - 0.00 in0.0 mm 0.00 in0.0 mm
10:10 PM 26.9°F-2.8°C 24.9°F-3.9°C 92% 1.2 mph ESE1.9 kmh ESE 2.3 mph3.7 kmh 30.37 in1028.4 mb - 0.00 in0.0 mm 0.00 in0.0 mm
10:20 PM 27.0°F-2.8°C 25.0°F-3.9°C 92% 1.2 mph ESE1.9 kmh ESE 2.3 mph3.7 kmh 30.37 in1028.4 mb - 0.00 in0.0 mm 0.00 in0.0 mm
10:30 PM 27.1°F-2.7°C 25.1°F-3.8°C 92% 1.2 mph SE1.9 kmh SE 2.3 mph3.7 kmh 30.37 in1028.4 mb - 0.00 in0.0 mm 0.00 in0.0 mm
10:40 PM 27.2°F-2.7°C 25.1°F-3.8°C 92% 2.3 mph ESE3.7 kmh ESE 3.5 mph5.6 kmh 30.37 in1028.4 mb - 0.00 in0.0 mm 0.00 in0.0 mm
10:50 PM 27.3°F-2.6°C 25.3°F-3.7°C 92% 1.2 mph ESE1.9 kmh ESE 3.5 mph5.6 kmh 30.37 in1028.4 mb - 0.00 in0.0 mm 0.00 in0.0 mm
11:00 PM 27.4°F-2.6°C 25.4°F-3.7°C 92% 1.2 mph SE1.9 kmh SE 3.5 mph5.6 kmh 30.37 in1028.4 mb - 0.00 in0.0 mm 0.00 in0.0 mm
11:10 PM 27.4°F-2.6°C 25.1°F-3.8°C 91% 1.2 mph SSE1.9 kmh SSE 1.2 mph1.9 kmh 30.37 in1028.4 mb - 0.00 in0.0 mm 0.00 in0.0 mm
11:20 PM 27.4°F-2.6°C 25.1°F-3.8°C 91% 2.3 mph SE3.7 kmh SE 4.6 mph7.4 kmh 30.37 in1028.4 mb - 0.00 in0.0 mm 0.00 in0.0 mm
11:30 PM 27.5°F-2.5°C 25.2°F-3.8°C 91% 2.3 mph SE3.7 kmh SE 3.5 mph5.6 kmh 30.36 in1028.1 mb - 0.00 in0.0 mm 0.00 in0.0 mm
11:40 PM 27.5°F-2.5°C 25.0°F-3.9°C 90% 2.3 mph SE3.7 kmh SE 3.5 mph5.6 kmh 30.37 in1028.4 mb - 0.00 in0.0 mm 0.00 in0.0 mm
11:50 PM 27.5°F-2.5°C 25.2°F-3.8°C 91% 1.2 mph S1.9 kmh S 2.3 mph3.7 kmh 30.36 in1028.1 mb - 0.00 in0.0 mm 0.00 in0.0 mm